Time;durP1;ratioP1;P1;durP2;ratioP2;P2;SDS_P1;SDS_P2;PMS_P1;PMS_P2;Temp;Humidity;BMP_temperature;BMP_pressure;BME280_temperature;BME280_humidity;BME280_pressure;Samples;Min_cycle;Max_cycle;Signal;HPM_P1;HPM_P2
2022/05/22 00:02:02;;;;;;;1.93;1.83;;;;;;;;;;5034779;28;20523;-66
2022/05/22 00:04:29;;;;;;;1.83;1.83;;;;;;;;;;5035101;28;20524;-64
2022/05/22 00:06:55;;;;;;;1.70;1.60;;;;;;;;;;5034840;28;20434;-64
2022/05/22 00:09:21;;;;;;;2.20;2.07;;;;;;;;;;5035356;28;20417;-65
2022/05/22 00:11:50;;;;;;;1.83;1.73;;;;;;;;;;5034943;28;20780;-64
2022/05/22 00:14:17;;;;;;;3.00;1.80;;;;;;;;;;5034892;28;20403;-63
2022/05/22 00:16:46;;;;;;;5.60;1.60;;;;;;;;;;5034446;28;20414;-65
2022/05/22 00:19:26;;;;;;;2.00;1.90;;;;;;;;;;5034857;28;20418;-64
2022/05/22 00:21:53;;;;;;;3.20;2.00;;;;;;;;;;5034610;28;20402;-63
2022/05/22 00:24:20;;;;;;;1.60;1.60;;;;;;;;;;5034728;28;20559;-66
2022/05/22 00:26:47;;;;;;;1.53;1.53;;;;;;;;;;5016912;28;20485;-64
2022/05/22 00:29:13;;;;;;;2.23;1.97;;;;;;;;;;5034695;28;20405;-64
2022/05/22 00:31:39;;;;;;;1.70;1.60;;;;;;;;;;5034599;28;20817;-64
2022/05/22 00:34:05;;;;;;;2.07;1.97;;;;;;;;;;5034658;28;20421;-63
2022/05/22 00:36:32;;;;;;;1.80;1.70;;;;;;;;;;5034515;28;20433;-66
2022/05/22 00:38:58;;;;;;;2.23;2.03;;;;;;;;;;5034346;28;20410;-65
2022/05/22 00:41:24;;;;;;;2.30;2.10;;;;;;;;;;5034512;28;20942;-66
2022/05/22 00:43:51;;;;;;;9.27;1.80;;;;;;;;;;5034120;28;20503;-64
2022/05/22 00:46:20;;;;;;;7.70;2.20;;;;;;;;;;5034335;28;20407;-64
2022/05/22 00:48:48;;;;;;;2.37;2.27;;;;;;;;;;5033831;28;20471;-65
2022/05/22 00:51:34;;;;;;;2.20;2.10;;;;;;;;;;5033919;28;20410;-64
2022/05/22 00:54:18;;;;;;;2.00;2.00;;;;;;;;;;5026729;28;20440;-64
2022/05/22 00:56:52;;;;;;;2.17;1.70;;;;;;;;;;5033848;28;20419;-65
2022/05/22 00:59:23;;;;;;;2.23;2.13;;;;;;;;;;5034668;28;20472;-64
2022/05/22 01:01:49;;;;;;;2.03;2.03;;;;;;;;;;5034426;28;20465;-63
2022/05/22 01:04:17;;;;;;;2.03;1.93;;;;;;;;;;5016731;28;20567;-63
2022/05/22 01:06:43;;;;;;;3.90;2.30;;;;;;;;;;5034761;28;20432;-63
2022/05/22 01:09:09;;;;;;;2.90;2.47;;;;;;;;;;5034777;28;20811;-64
2022/05/22 01:11:36;;;;;;;2.23;2.23;;;;;;;;;;5034500;28;20440;-63
2022/05/22 01:14:07;;;;;;;2.27;2.10;;;;;;;;;;5034265;28;20412;-64
2022/05/22 01:16:33;;;;;;;2.00;1.90;;;;;;;;;;5034242;28;20400;-64
2022/05/22 01:18:59;;;;;;;2.07;1.97;;;;;;;;;;5034308;28;20555;-65
2022/05/22 01:21:27;;;;;;;2.03;1.93;;;;;;;;;;5034235;28;20884;-65
2022/05/22 01:23:53;;;;;;;2.80;1.90;;;;;;;;;;5034086;28;20803;-64
2022/05/22 01:26:20;;;;;;;2.40;1.90;;;;;;;;;;5034151;28;20408;-64
2022/05/22 01:28:46;;;;;;;2.50;2.40;;;;;;;;;;5034094;28;20439;-65
2022/05/22 01:31:13;;;;;;;3.53;2.17;;;;;;;;;;5034268;28;20736;-63
2022/05/22 01:33:39;;;;;;;3.07;2.20;;;;;;;;;;5033997;28;20443;-63
2022/05/22 01:36:05;;;;;;;2.10;2.00;;;;;;;;;;5034007;28;20895;-64
2022/05/22 01:38:31;;;;;;;7.60;2.10;;;;;;;;;;5016176;28;20852;-63
2022/05/22 01:40:57;;;;;;;1.60;1.60;;;;;;;;;;5033931;28;20424;-64
2022/05/22 01:43:24;;;;;;;1.90;1.90;;;;;;;;;;5033780;28;20521;-64
2022/05/22 01:45:50;;;;;;;1.47;1.47;;;;;;;;;;5033921;28;20504;-64
2022/05/22 01:48:16;;;;;;;2.03;1.93;;;;;;;;;;5033746;28;20403;-65
2022/05/22 01:50:42;;;;;;;2.00;1.90;;;;;;;;;;5033952;28;20399;-63
2022/05/22 01:53:08;;;;;;;5.43;3.00;;;;;;;;;;5033720;28;20396;-64
2022/05/22 01:55:34;;;;;;;1.70;1.70;;;;;;;;;;5033663;28;20388;-63
2022/05/22 01:58:00;;;;;;;4.07;2.10;;;;;;;;;;5033710;28;20407;-64
2022/05/22 02:00:27;;;;;;;2.20;2.10;;;;;;;;;;5033448;28;20523;-65
2022/05/22 02:02:56;;;;;;;2.03;2.03;;;;;;;;;;5032841;28;20495;-65
2022/05/22 02:05:23;;;;;;;2.60;2.40;;;;;;;;;;5033606;28;20409;-64
2022/05/22 02:10:34;;;;;;;2.67;2.20;;;;;;;;;;5033786;28;20412;-65
2022/05/22 02:13:00;;;;;;;2.07;1.97;;;;;;;;;;5033474;28;20396;-66
2022/05/22 02:15:27;;;;;;;1.73;1.67;;;;;;;;;;5033349;28;20853;-64
2022/05/22 02:17:53;;;;;;;2.80;1.67;;;;;;;;;;5033350;28;20404;-64
2022/05/22 02:20:19;;;;;;;1.93;1.93;;;;;;;;;;5033413;28;20426;-65
2022/05/22 02:22:46;;;;;;;2.43;2.27;;;;;;;;;;5033275;28;20400;-65
2022/05/22 02:25:14;;;;;;;1.90;1.90;;;;;;;;;;5033350;28;20404;-64
2022/05/22 02:27:40;;;;;;;2.30;2.10;;;;;;;;;;5033346;28;20400;-64
2022/05/22 02:30:07;;;;;;;2.03;2.03;;;;;;;;;;5033282;28;20768;-64
2022/05/22 02:32:33;;;;;;;2.20;2.10;;;;;;;;;;5033268;28;20487;-64
2022/05/22 02:34:59;;;;;;;1.90;1.80;;;;;;;;;;5033264;28;20975;-64
2022/05/22 02:37:25;;;;;;;1.80;1.80;;;;;;;;;;5033220;28;20454;-64
2022/05/22 02:39:51;;;;;;;2.13;1.93;;;;;;;;;;5033161;28;20491;-65
2022/05/22 02:42:17;;;;;;;1.93;1.83;;;;;;;;;;5033261;28;20412;-64
2022/05/22 02:44:43;;;;;;;1.50;1.50;;;;;;;;;;5033288;28;20831;-66
2022/05/22 02:47:09;;;;;;;3.07;2.00;;;;;;;;;;5033093;28;20403;-65
2022/05/22 02:49:36;;;;;;;2.53;2.43;;;;;;;;;;5033097;28;20416;-63
2022/05/22 02:52:02;;;;;;;1.90;1.90;;;;;;;;;;5033322;28;20407;-62
2022/05/22 02:54:28;;;;;;;1.83;1.83;;;;;;;;;;5033104;28;20401;-62
2022/05/22 02:56:54;;;;;;;2.63;2.30;;;;;;;;;;5033091;28;20403;-62
2022/05/22 02:59:20;;;;;;;1.90;1.90;;;;;;;;;;5033059;28;20404;-63
2022/05/22 03:01:46;;;;;;;2.20;2.07;;;;;;;;;;5032794;28;20465;-62
2022/05/22 03:04:12;;;;;;;2.00;2.00;;;;;;;;;;5032925;28;20475;-64
2022/05/22 03:06:38;;;;;;;2.23;2.00;;;;;;;;;;5032967;28;20470;-63
2022/05/22 03:09:05;;;;;;;2.30;2.20;;;;;;;;;;5032963;28;20503;-63
2022/05/22 03:11:31;;;;;;;3.57;1.80;;;;;;;;;;5032987;28;20400;-63
2022/05/22 03:13:57;;;;;;;2.03;2.03;;;;;;;;;;5016179;28;20442;-63
2022/05/22 03:16:23;;;;;;;4.83;2.40;;;;;;;;;;5036542;28;20419;-63
2022/05/22 03:18:49;;;;;;;2.47;2.47;;;;;;;;;;5018892;28;20530;-63
2022/05/22 03:21:15;;;;;;;2.90;2.40;;;;;;;;;;5036518;28;20513;-65
2022/05/22 03:23:41;;;;;;;2.20;2.10;;;;;;;;;;5036383;28;20954;-64
2022/05/22 03:26:09;;;;;;;1.87;1.87;;;;;;;;;;5036389;28;20408;-66
2022/05/22 03:28:35;;;;;;;2.10;2.10;;;;;;;;;;5036628;28;20404;-66
2022/05/22 03:31:01;;;;;;;2.13;2.00;;;;;;;;;;5036313;28;20503;-65
2022/05/22 03:33:27;;;;;;;8.33;2.80;;;;;;;;;;5036315;28;20404;-63
2022/05/22 03:35:53;;;;;;;2.70;2.40;;;;;;;;;;5036355;28;20907;-63
2022/05/22 03:38:19;;;;;;;2.60;2.30;;;;;;;;;;5036162;28;20875;-64
2022/05/22 03:40:47;;;;;;;4.43;2.40;;;;;;;;;;5036177;28;20407;-66
2022/05/22 03:43:16;;;;;;;6.70;2.10;;;;;;;;;;5036286;28;20463;-66
2022/05/22 03:45:42;;;;;;;2.63;2.47;;;;;;;;;;5036065;28;20419;-64
2022/05/22 03:48:09;;;;;;;2.23;2.13;;;;;;;;;;5036026;28;20447;-65
2022/05/22 03:50:35;;;;;;;2.90;2.27;;;;;;;;;;5036338;28;20416;-65
2022/05/22 03:53:01;;;;;;;2.20;2.07;;;;;;;;;;5035941;28;20499;-66
2022/05/22 03:55:27;;;;;;;2.80;1.93;;;;;;;;;;5035799;28;20906;-65
2022/05/22 03:57:54;;;;;;;2.47;2.20;;;;;;;;;;5035850;28;20886;-65
2022/05/22 04:00:20;;;;;;;2.10;2.00;;;;;;;;;;5035905;28;20412;-66
2022/05/22 04:02:46;;;;;;;1.93;1.93;;;;;;;;;;5035666;28;20432;-66
2022/05/22 04:05:13;;;;;;;2.37;2.17;;;;;;;;;;5035839;28;20458;-65
2022/05/22 04:07:39;;;;;;;2.27;2.27;;;;;;;;;;5035703;28;20411;-65
2022/05/22 04:10:06;;;;;;;2.10;2.00;;;;;;;;;;5035588;28;20502;-65
2022/05/22 04:12:33;;;;;;;1.90;1.90;;;;;;;;;;5035371;28;20439;-66
2022/05/22 04:14:59;;;;;;;2.40;2.20;;;;;;;;;;5035317;28;20416;-64
2022/05/22 04:17:25;;;;;;;2.80;2.33;;;;;;;;;;5035387;28;20407;-65
2022/05/22 04:19:51;;;;;;;3.47;2.17;;;;;;;;;;5035371;28;20411;-65
2022/05/22 04:22:17;;;;;;;2.90;2.80;;;;;;;;;;5035307;28;20403;-64
2022/05/22 04:27:27;;;;;;;2.50;2.30;;;;;;;;;;5034784;28;20388;-65
2022/05/22 04:29:53;;;;;;;2.50;2.40;;;;;;;;;;5035157;28;20516;-63
2022/05/22 04:32:19;;;;;;;2.30;2.10;;;;;;;;;;5035162;28;20436;-64
2022/05/22 04:34:45;;;;;;;2.33;2.23;;;;;;;;;;5035232;28;20428;-63
2022/05/22 04:37:11;;;;;;;3.10;2.10;;;;;;;;;;5035402;28;20844;-64
2022/05/22 04:39:37;;;;;;;5.03;2.10;;;;;;;;;;5035147;28;20432;-64
2022/05/22 04:42:04;;;;;;;3.83;2.40;;;;;;;;;;5035155;28;20404;-63
2022/05/22 04:44:30;;;;;;;8.63;2.70;;;;;;;;;;5034900;28;20474;-63
2022/05/22 04:46:56;;;;;;;2.90;2.13;;;;;;;;;;5034872;28;20871;-63
2022/05/22 04:49:22;;;;;;;2.30;2.20;;;;;;;;;;5035165;28;20435;-64
2022/05/22 04:51:48;;;;;;;3.93;2.00;;;;;;;;;;5034783;28;20757;-63
2022/05/22 04:54:13;;;;;;;1.97;1.87;;;;;;;;;;5034694;28;20462;-63
2022/05/22 04:56:39;;;;;;;5.50;3.10;;;;;;;;;;5034584;28;20479;-63
2022/05/22 04:59:05;;;;;;;2.20;2.10;;;;;;;;;;5034640;28;20921;-63
2022/05/22 05:01:31;;;;;;;2.60;2.60;;;;;;;;;;5034547;28;20459;-63
2022/05/22 05:03:57;;;;;;;2.17;2.07;;;;;;;;;;5034556;28;20521;-63
2022/05/22 05:06:23;;;;;;;1.77;1.77;;;;;;;;;;5034573;28;20470;-63
2022/05/22 05:08:49;;;;;;;2.10;2.10;;;;;;;;;;5034646;28;20404;-64
2022/05/22 05:11:15;;;;;;;2.10;2.00;;;;;;;;;;5034521;28;20443;-63
2022/05/22 05:13:41;;;;;;;3.37;2.30;;;;;;;;;;5034336;28;20408;-64
2022/05/22 05:16:09;;;;;;;5.17;2.20;;;;;;;;;;5034420;28;20408;-64
2022/05/22 05:18:35;;;;;;;3.17;2.87;;;;;;;;;;5034247;28;20407;-65
2022/05/22 05:21:06;;;;;;;2.43;2.20;;;;;;;;;;5034143;28;20827;-65
2022/05/22 05:23:32;;;;;;;3.53;2.90;;;;;;;;;;5034111;28;20834;-65
2022/05/22 05:25:58;;;;;;;2.83;2.63;;;;;;;;;;5034271;28;20925;-66
2022/05/22 05:28:24;;;;;;;5.40;2.50;;;;;;;;;;5034211;28;20400;-69
2022/05/22 05:30:51;;;;;;;2.13;2.10;;;;;;;;;;5034128;28;20396;-64
2022/05/22 05:33:17;;;;;;;2.63;2.07;;;;;;;;;;5034350;28;20404;-65
2022/05/22 05:35:43;;;;;;;6.43;2.50;;;;;;;;;;5034075;28;20439;-64
2022/05/22 05:38:09;;;;;;;2.03;1.93;;;;;;;;;;5034106;28;20412;-64
2022/05/22 05:40:35;;;;;;;2.53;2.43;;;;;;;;;;5033957;28;20476;-67
2022/05/22 05:43:02;;;;;;;3.30;2.53;;;;;;;;;;5033961;28;20978;-68
2022/05/22 05:45:28;;;;;;;3.33;3.10;;;;;;;;;;5033881;28;20877;-66
2022/05/22 05:47:54;;;;;;;2.13;2.13;;;;;;;;;;5033853;28;20872;-65
2022/05/22 05:50:22;;;;;;;2.70;2.50;;;;;;;;;;5034116;28;20814;-66
2022/05/22 05:52:50;;;;;;;2.30;1.90;;;;;;;;;;5033836;28;20394;-66
2022/05/22 05:55:17;;;;;;;2.63;1.83;;;;;;;;;;5034016;28;20419;-64
2022/05/22 05:57:43;;;;;;;2.13;1.97;;;;;;;;;;5033991;28;20786;-67
2022/05/22 06:00:11;;;;;;;2.20;2.10;;;;;;;;;;5033469;28;20485;-66
2022/05/22 06:02:37;;;;;;;3.77;2.40;;;;;;;;;;5033653;28;20552;-65
2022/05/22 06:05:03;;;;;;;3.67;3.37;;;;;;;;;;5033578;28;20463;-65
2022/05/22 06:07:29;;;;;;;1.70;1.70;;;;;;;;;;5033711;28;20407;-64
2022/05/22 06:09:55;;;;;;;3.43;3.10;;;;;;;;;;5033596;28;20548;-65
2022/05/22 06:12:21;;;;;;;5.23;4.83;;;;;;;;;;5033572;28;20410;-64
2022/05/22 06:14:47;;;;;;;4.40;4.10;;;;;;;;;;5033532;28;20494;-64
2022/05/22 06:17:14;;;;;;;2.53;1.90;;;;;;;;;;5033502;28;20506;-64
2022/05/22 06:20:14;;;;;;;2.80;2.70;;;;;;;;;;5033796;28;20406;-64
2022/05/22 06:22:34;;;;;;;6.40;5.03;;;;;;;;;;5029475;28;20431;-64
2022/05/22 06:25:00;;;;;;;5.90;5.07;;;;;;;;;;5033467;28;20834;-64
2022/05/22 06:27:26;;;;;;;2.50;2.40;;;;;;;;;;5033760;28;20414;-64
2022/05/22 06:29:52;;;;;;;2.70;2.60;;;;;;;;;;5033934;28;20428;-65
2022/05/22 06:32:19;;;;;;;2.53;2.33;;;;;;;;;;5033495;28;20399;-66
2022/05/22 06:34:47;;;;;;;4.77;1.50;;;;;;;;;;5033613;28;20401;-65
2022/05/22 06:37:14;;;;;;;2.20;1.97;;;;;;;;;;5033864;28;20453;-66
2022/05/22 06:39:53;;;;;;;2.30;2.10;;;;;;;;;;5033986;28;20814;-64
2022/05/22 06:42:19;;;;;;;2.50;2.40;;;;;;;;;;5033351;28;20482;-64
2022/05/22 06:44:50;;;;;;;2.50;2.43;;;;;;;;;;5033256;28;20980;-65
2022/05/22 06:47:16;;;;;;;1.70;1.70;;;;;;;;;;5033144;28;20913;-65
2022/05/22 06:49:44;;;;;;;6.27;1.87;;;;;;;;;;5035590;28;20411;-65
2022/05/22 06:52:10;;;;;;;2.00;1.90;;;;;;;;;;5037096;28;20415;-64
2022/05/22 06:54:36;;;;;;;3.30;3.20;;;;;;;;;;5037085;28;20411;-63
2022/05/22 06:57:02;;;;;;;14.13;12.63;;;;;;;;;;5037005;28;20396;-63
2022/05/22 06:59:28;;;;;;;65.87;50.10;;;;;;;;;;5036976;28;20766;-63
2022/05/22 07:01:54;;;;;;;3.70;1.90;;;;;;;;;;5036777;28;20470;-64
2022/05/22 07:04:21;;;;;;;2.40;1.70;;;;;;;;;;5036938;28;20471;-63
2022/05/22 07:06:48;;;;;;;1.97;1.70;;;;;;;;;;5036885;28;20396;-64
2022/05/22 07:09:14;;;;;;;2.00;1.70;;;;;;;;;;5037082;28;20491;-63
2022/05/22 07:11:40;;;;;;;1.57;1.57;;;;;;;;;;5037010;28;20411;-64
2022/05/22 07:14:07;;;;;;;2.60;2.27;;;;;;;;;;5036709;28;20402;-63
2022/05/22 07:16:34;;;;;;;3.67;2.60;;;;;;;;;;5036679;28;20397;-63
2022/05/22 07:19:00;;;;;;;2.67;1.90;;;;;;;;;;5036679;28;20436;-64
2022/05/22 07:21:26;;;;;;;1.97;1.87;;;;;;;;;;5036519;28;20403;-65
2022/05/22 07:23:52;;;;;;;3.83;1.70;;;;;;;;;;5036408;28;20988;-64
2022/05/22 07:26:21;;;;;;;2.03;1.93;;;;;;;;;;5036531;28;20499;-64
2022/05/22 07:28:47;;;;;;;2.30;2.10;;;;;;;;;;5036528;28;20466;-65
2022/05/22 07:31:14;;;;;;;4.03;3.93;;;;;;;;;;5036305;28;20406;-65
2022/05/22 07:33:40;;;;;;;5.17;2.47;;;;;;;;;;5036487;28;20417;-64
2022/05/22 07:36:06;;;;;;;1.80;1.80;;;;;;;;;;5036462;28;20432;-66
2022/05/22 07:38:32;;;;;;;3.53;2.20;;;;;;;;;;5036301;28;20421;-64
2022/05/22 07:40:58;;;;;;;1.70;1.60;;;;;;;;;;5036203;28;20406;-65
2022/05/22 07:43:24;;;;;;;1.30;1.30;;;;;;;;;;5036057;28;20455;-64
2022/05/22 07:45:50;;;;;;;1.80;1.70;;;;;;;;;;5036112;28;20899;-65
2022/05/22 07:48:16;;;;;;;3.93;3.83;;;;;;;;;;5036050;28;20483;-65
2022/05/22 07:50:42;;;;;;;2.50;2.40;;;;;;;;;;5035952;28;20509;-65
2022/05/22 07:53:08;;;;;;;2.17;2.17;;;;;;;;;;5036026;28;20434;-64
2022/05/22 07:55:34;;;;;;;1.90;1.80;;;;;;;;;;5035909;28;20406;-64
2022/05/22 07:58:01;;;;;;;8.53;2.00;;;;;;;;;;5035816;28;20421;-64
2022/05/22 08:00:27;;;;;;;1.80;1.70;;;;;;;;;;5035693;28;20519;-64
2022/05/22 08:02:53;;;;;;;1.50;1.50;;;;;;;;;;5035802;28;20425;-63
2022/05/22 08:05:20;;;;;;;2.10;1.77;;;;;;;;;;5035794;28;20881;-63
2022/05/22 08:07:46;;;;;;;2.30;1.70;;;;;;;;;;5035736;28;20877;-63
2022/05/22 08:10:13;;;;;;;1.40;1.40;;;;;;;;;;5035758;28;20435;-63
2022/05/22 08:12:44;;;;;;;6.20;1.40;;;;;;;;;;5035684;28;20784;-63
2022/05/22 08:15:11;;;;;;;2.30;1.77;;;;;;;;;;5035711;28;20398;-65
2022/05/22 08:17:37;;;;;;;1.73;1.73;;;;;;;;;;5035440;28;20407;-63
2022/05/22 08:20:05;;;;;;;1.70;1.60;;;;;;;;;;5035468;28;20920;-64
2022/05/22 08:22:31;;;;;;;1.70;1.60;;;;;;;;;;5035586;28;20403;-64
2022/05/22 08:24:57;;;;;;;1.70;1.60;;;;;;;;;;5035702;28;20488;-64
2022/05/22 08:27:23;;;;;;;3.20;1.70;;;;;;;;;;5035356;28;20875;-63
2022/05/22 08:29:49;;;;;;;3.33;1.80;;;;;;;;;;5035297;28;20414;-64
2022/05/22 08:32:15;;;;;;;9.63;2.73;;;;;;;;;;5035297;28;20402;-64
2022/05/22 08:34:41;;;;;;;2.33;2.10;;;;;;;;;;5017577;28;20473;-64
2022/05/22 08:37:07;;;;;;;2.03;1.90;;;;;;;;;;5035215;28;20903;-64
2022/05/22 08:39:33;;;;;;;2.30;1.80;;;;;;;;;;5035144;28;20472;-64
2022/05/22 08:41:59;;;;;;;1.70;1.70;;;;;;;;;;5035344;28;20499;-64
2022/05/22 08:44:28;;;;;;;2.63;1.60;;;;;;;;;;5035035;28;20495;-64
2022/05/22 08:47:11;;;;;;;2.00;1.90;;;;;;;;;;5035000;28;20484;-64
2022/05/22 08:49:40;;;;;;;2.63;2.00;;;;;;;;;;5035236;28;20401;-64
2022/05/22 08:52:11;;;;;;;2.60;1.53;;;;;;;;;;5034877;28;20400;-64
2022/05/22 08:54:42;;;;;;;3.37;2.00;;;;;;;;;;5035048;28;20468;-64
2022/05/22 09:00:06;;;;;;;1.70;1.60;;;;;;;;;;5034933;28;20443;-65
2022/05/22 09:02:45;;;;;;;2.20;2.00;;;;;;;;;;5034890;28;20447;-64
2022/05/22 09:05:14;;;;;;;2.27;1.90;;;;;;;;;;5034564;28;20460;-65
2022/05/22 09:07:55;;;;;;;2.30;1.70;;;;;;;;;;5034675;28;20506;-65
2022/05/22 09:10:42;;;;;;;2.10;2.00;;;;;;;;;;5034477;28;20424;-65
2022/05/22 09:13:15;;;;;;;1.33;1.33;;;;;;;;;;5033826;28;20417;-65
2022/05/22 09:15:44;;;;;;;1.97;1.80;;;;;;;;;;5034428;28;20405;-65
2022/05/22 09:18:14;;;;;;;4.73;1.80;;;;;;;;;;5034434;28;20393;-65
2022/05/22 09:20:40;;;;;;;1.90;1.80;;;;;;;;;;5034575;28;20497;-64
2022/05/22 09:23:08;;;;;;;1.57;1.57;;;;;;;;;;5034194;28;20832;-65
2022/05/22 09:25:34;;;;;;;1.30;1.30;;;;;;;;;;5034436;28;20409;-65
2022/05/22 09:28:19;;;;;;;2.43;1.30;;;;;;;;;;5034009;28;20413;-64
2022/05/22 09:30:45;;;;;;;1.70;1.47;;;;;;;;;;5034272;28;20435;-65
2022/05/22 09:33:30;;;;;;;1.50;1.33;;;;;;;;;;5034066;28;20490;-66
2022/05/22 09:36:32;;;;;;;3.20;1.57;;;;;;;;;;5033769;28;20797;-65
2022/05/22 09:38:58;;;;;;;1.60;1.50;;;;;;;;;;5016403;28;20525;-66
2022/05/22 09:41:24;;;;;;;2.73;1.43;;;;;;;;;;5034019;28;20437;-65
2022/05/22 09:44:09;;;;;;;1.23;1.23;;;;;;;;;;5033865;28;20534;-65
2022/05/22 09:46:35;;;;;;;5.53;2.17;;;;;;;;;;5033891;28;20483;-66
2022/05/22 09:49:37;;;;;;;1.63;1.53;;;;;;;;;;5034041;28;20449;-64
2022/05/22 09:52:03;;;;;;;2.50;1.67;;;;;;;;;;5008949;28;20426;-65
2022/05/22 09:54:31;;;;;;;3.63;2.00;;;;;;;;;;5034069;28;20419;-66
2022/05/22 09:57:16;;;;;;;1.37;1.37;;;;;;;;;;5034047;28;20429;-66
2022/05/22 09:59:42;;;;;;;1.10;1.00;;;;;;;;;;5033756;28;20415;-66
2022/05/22 10:02:12;;;;;;;1.50;1.40;;;;;;;;;;5033530;28;20459;-66
2022/05/22 10:04:51;;;;;;;2.97;1.50;;;;;;;;;;5033615;28;20965;-65
2022/05/22 10:07:32;;;;;;;1.83;1.73;;;;;;;;;;5033562;28;20734;-66
2022/05/22 10:10:08;;;;;;;1.83;1.50;;;;;;;;;;5033666;28;20414;-65
2022/05/22 10:12:38;;;;;;;1.23;1.23;;;;;;;;;;5033576;28;20397;-65
2022/05/22 10:15:19;;;;;;;1.40;1.30;;;;;;;;;;5033537;28;20494;-67
2022/05/22 10:17:45;;;;;;;1.50;1.50;;;;;;;;;;5033397;28;20882;-65
2022/05/22 10:20:29;;;;;;;1.30;1.30;;;;;;;;;;5033438;28;20403;-67
2022/05/22 10:23:02;;;;;;;1.47;1.47;;;;;;;;;;5032805;28;20445;-64
2022/05/22 10:25:54;;;;;;;1.23;1.23;;;;;;;;;;5015420;28;20477;-65
2022/05/22 10:28:25;;;;;;;5.10;1.20;;;;;;;;;;5033403;28;20940;-65
2022/05/22 10:31:17;;;;;;;1.50;1.50;;;;;;;;;;5033332;28;20919;-66
2022/05/22 10:33:43;;;;;;;1.43;1.07;;;;;;;;;;5033370;28;20450;-66
2022/05/22 10:36:12;;;;;;;1.27;1.03;;;;;;;;;;5033341;28;20768;-66
2022/05/22 10:38:43;;;;;;;2.73;1.20;;;;;;;;;;5033291;28;20416;-66
2022/05/22 10:44:14;;;;;;;3.13;1.30;;;;;;;;;;5033455;28;20529;-65
2022/05/22 10:46:48;;;;;;;4.13;1.37;;;;;;;;;;5033251;28;20408;-66
2022/05/22 10:49:14;;;;;;;1.30;1.20;;;;;;;;;;5033201;28;20432;-66
2022/05/22 10:51:39;;;;;;;7.40;1.10;;;;;;;;;;5033195;28;20407;-66
2022/05/22 10:54:05;;;;;;;1.60;1.27;;;;;;;;;;5033261;28;20413;-66
2022/05/22 10:56:33;;;;;;;1.10;1.10;;;;;;;;;;5033134;28;20821;-66
2022/05/22 10:59:05;;;;;;;1.40;1.10;;;;;;;;;;5033190;28;20422;-66
2022/05/22 11:01:39;;;;;;;2.23;1.30;;;;;;;;;;5032938;28;20456;-67
2022/05/22 11:04:11;;;;;;;1.53;1.53;;;;;;;;;;5015366;28;20837;-68
2022/05/22 11:06:38;;;;;;;1.03;1.03;;;;;;;;;;5033041;28;20401;-66
2022/05/22 11:09:05;;;;;;;1.00;1.00;;;;;;;;;;5033001;28;20402;-68
2022/05/22 11:11:34;;;;;;;1.07;1.07;;;;;;;;;;5033042;28;20493;-67
2022/05/22 11:14:10;;;;;;;1.03;1.03;;;;;;;;;;5032984;28;20401;-68
2022/05/22 11:16:37;;;;;;;1.70;1.70;;;;;;;;;;5033008;28;20475;-67
2022/05/22 11:19:07;;;;;;;1.13;1.03;;;;;;;;;;5032957;28;20928;-67
2022/05/22 11:21:36;;;;;;;1.00;1.00;;;;;;;;;;5032916;28;20399;-65
2022/05/22 11:24:13;;;;;;;1.00;1.00;;;;;;;;;;5033044;28;20730;-67
2022/05/22 11:27:00;;;;;;;2.20;1.33;;;;;;;;;;5033131;28;20406;-68
2022/05/22 11:29:45;;;;;;;12.63;1.20;;;;;;;;;;5032799;28;20508;-66
2022/05/22 11:32:10;;;;;;;2.10;1.37;;;;;;;;;;5032821;28;20407;-67
2022/05/22 11:34:55;;;;;;;1.33;1.33;;;;;;;;;;5033274;28;20544;-67
2022/05/22 11:37:41;;;;;;;1.03;1.03;;;;;;;;;;5036374;28;20179;-68
2022/05/22 11:40:26;;;;;;;1.40;1.30;;;;;;;;;;5029057;28;20430;-65
2022/05/22 11:42:58;;;;;;;1.23;1.17;;;;;;;;;;5036239;28;20403;-66
2022/05/22 11:45:32;;;;;;;1.33;1.30;;;;;;;;;;5036287;28;20761;-66
2022/05/22 11:48:04;;;;;;;1.07;0.70;;;;;;;;;;5036208;28;20534;-65
2022/05/22 11:50:33;;;;;;;1.27;0.80;;;;;;;;;;5036173;28;20408;-66
2022/05/22 11:53:09;;;;;;;1.20;1.20;;;;;;;;;;5036060;28;20397;-68
2022/05/22 11:55:46;;;;;;;1.30;1.20;;;;;;;;;;5036059;28;20484;-65
2022/05/22 11:58:18;;;;;;;3.80;1.20;;;;;;;;;;5035978;28;20434;-66
2022/05/22 12:00:57;;;;;;;0.93;0.93;;;;;;;;;;5035995;28;20472;-67
2022/05/22 12:03:46;;;;;;;0.67;0.67;;;;;;;;;;5035977;28;20482;-68
2022/05/22 12:06:18;;;;;;;0.83;0.83;;;;;;;;;;5018139;28;20806;-67
2022/05/22 12:08:47;;;;;;;3.43;0.90;;;;;;;;;;5035745;28;20403;-68
2022/05/22 12:11:19;;;;;;;4.10;0.97;;;;;;;;;;5035907;28;20430;-67
2022/05/22 12:13:48;;;;;;;2.33;1.53;;;;;;;;;;5035727;28;20434;-67
2022/05/22 12:16:19;;;;;;;7.17;1.40;;;;;;;;;;5035657;28;20469;-67
2022/05/22 12:18:50;;;;;;;0.93;0.93;;;;;;;;;;5035607;28;20490;-67
2022/05/22 12:21:48;;;;;;;0.93;0.93;;;;;;;;;;5035674;28;20405;-68
2022/05/22 12:24:38;;;;;;;1.33;1.13;;;;;;;;;;5035411;28;20957;-68
2022/05/22 12:27:07;;;;;;;1.30;1.20;;;;;;;;;;5011856;28;20477;-68
2022/05/22 12:29:45;;;;;;;0.73;0.73;;;;;;;;;;5035415;28;20408;-66
2022/05/22 12:32:21;;;;;;;1.10;1.10;;;;;;;;;;5035382;28;20430;-68
2022/05/22 12:34:52;;;;;;;2.93;1.00;;;;;;;;;;5035561;28;20453;-67
2022/05/22 12:37:26;;;;;;;0.97;0.87;;;;;;;;;;5035198;28;20962;-68
2022/05/22 12:39:56;;;;;;;0.90;0.90;;;;;;;;;;5035094;28;20400;-68
2022/05/22 12:42:27;;;;;;;2.20;0.83;;;;;;;;;;5035135;28;20407;-68
2022/05/22 12:44:54;;;;;;;2.50;1.10;;;;;;;;;;5035272;28;20463;-67
2022/05/22 12:47:20;;;;;;;0.70;0.70;;;;;;;;;;5034453;28;20412;-67
2022/05/22 12:49:57;;;;;;;2.97;1.30;;;;;;;;;;5034942;28;20408;-67
2022/05/22 12:52:29;;;;;;;0.60;0.60;;;;;;;;;;5035002;28;20399;-67
2022/05/22 12:55:05;;;;;;;1.87;1.00;;;;;;;;;;5034885;28;20392;-67
2022/05/22 12:57:31;;;;;;;1.00;0.90;;;;;;;;;;5034842;28;20902;-67
2022/05/22 12:59:58;;;;;;;1.00;1.00;;;;;;;;;;5034803;28;20404;-67
2022/05/22 13:02:25;;;;;;;0.70;0.70;;;;;;;;;;5034519;28;20467;-67
2022/05/22 13:04:54;;;;;;;0.90;0.90;;;;;;;;;;5034883;28;20562;-66
2022/05/22 13:07:25;;;;;;;1.90;0.70;;;;;;;;;;5034640;28;20403;-66
2022/05/22 13:09:54;;;;;;;0.90;0.90;;;;;;;;;;5034590;28;20411;-67
2022/05/22 13:12:20;;;;;;;1.60;0.80;;;;;;;;;;5034545;28;20404;-66
2022/05/22 13:14:51;;;;;;;0.63;0.63;;;;;;;;;;5034481;28;20408;-66
2022/05/22 13:17:30;;;;;;;2.30;1.20;;;;;;;;;;5034487;28;20420;-66
2022/05/22 13:19:57;;;;;;;3.23;1.00;;;;;;;;;;5034366;28;20407;-66
2022/05/22 13:22:34;;;;;;;11.20;1.00;;;;;;;;;;5034585;28;20396;-66
2022/05/22 13:25:00;;;;;;;0.77;0.77;;;;;;;;;;5034226;28;20499;-67
2022/05/22 13:27:29;;;;;;;2.50;0.90;;;;;;;;;;5034244;28;20403;-66
2022/05/22 13:30:04;;;;;;;1.47;1.00;;;;;;;;;;5034228;28;20812;-67
2022/05/22 13:32:34;;;;;;;0.70;0.70;;;;;;;;;;5034245;28;20388;-66
2022/05/22 13:35:01;;;;;;;0.70;0.70;;;;;;;;;;5034177;28;20736;-67
2022/05/22 13:37:31;;;;;;;0.93;0.70;;;;;;;;;;5034030;28;20807;-66
2022/05/22 13:40:00;;;;;;;0.83;0.83;;;;;;;;;;5034286;28;20400;-66
2022/05/22 13:42:48;;;;;;;1.33;0.93;;;;;;;;;;5033864;28;20848;-66
2022/05/22 13:45:26;;;;;;;1.10;0.83;;;;;;;;;;5033945;28;20467;-67
2022/05/22 13:48:03;;;;;;;0.90;0.90;;;;;;;;;;5033877;28;20942;-69
2022/05/22 13:53:37;;;;;;;0.60;0.60;;;;;;;;;;5034168;28;20458;-67
2022/05/22 13:56:03;;;;;;;1.00;0.90;;;;;;;;;;5033789;28;20423;-66
2022/05/22 13:58:31;;;;;;;0.80;0.80;;;;;;;;;;5033732;28;20397;-66
2022/05/22 14:00:58;;;;;;;1.03;1.00;;;;;;;;;;5033550;28;20527;-66
2022/05/22 14:03:27;;;;;;;0.80;0.80;;;;;;;;;;5033612;28;20448;-66
2022/05/22 14:06:00;;;;;;;0.93;0.83;;;;;;;;;;5033620;28;20447;-67
2022/05/22 14:08:29;;;;;;;1.20;1.20;;;;;;;;;;5033668;28;20408;-67
2022/05/22 14:11:01;;;;;;;1.10;1.10;;;;;;;;;;5033639;28;20757;-66
2022/05/22 14:13:28;;;;;;;2.20;1.00;;;;;;;;;;5033497;28;20400;-67
2022/05/22 14:16:04;;;;;;;0.90;0.90;;;;;;;;;;5033306;28;20407;-66
2022/05/22 14:18:34;;;;;;;0.60;0.60;;;;;;;;;;5033485;28;20859;-67
2022/05/22 14:21:08;;;;;;;0.70;0.63;;;;;;;;;;5033337;28;20745;-65
2022/05/22 14:24:51;;;;;;;0.87;0.80;;;;;;;;;;5033277;28;20456;-67
2022/05/22 14:26:24;;;;;;;2.10;0.90;;;;;;;;;;5033147;28;20424;-66
2022/05/22 14:28:51;;;;;;;1.07;0.77;;;;;;;;;;5033438;28;20757;-67
2022/05/22 14:31:17;;;;;;;0.83;0.73;;;;;;;;;;5033348;28;20432;-69
2022/05/22 14:33:43;;;;;;;2.83;1.03;;;;;;;;;;5033237;28;20410;-68
2022/05/22 14:36:14;;;;;;;0.70;0.70;;;;;;;;;;5033363;28;20462;-69
2022/05/22 14:38:41;;;;;;;0.80;0.80;;;;;;;;;;5033349;28;20783;-67
2022/05/22 14:41:08;;;;;;;1.00;0.90;;;;;;;;;;5033296;28;20882;-65
2022/05/22 14:43:59;;;;;;;1.10;1.10;;;;;;;;;;5033243;28;20460;-68
2022/05/22 14:46:41;;;;;;;1.80;0.87;;;;;;;;;;5033203;28;20450;-66
2022/05/22 14:49:18;;;;;;;2.40;1.07;;;;;;;;;;5033485;28;20421;-67
2022/05/22 14:51:44;;;;;;;2.00;0.97;;;;;;;;;;5033174;28;20404;-67
2022/05/22 14:54:10;;;;;;;1.00;1.00;;;;;;;;;;5033251;28;20408;-67
2022/05/22 14:56:38;;;;;;;1.00;1.00;;;;;;;;;;5033177;28;20157;-67
2022/05/22 14:59:05;;;;;;;2.13;1.20;;;;;;;;;;5033149;28;20765;-67
2022/05/22 15:01:40;;;;;;;0.90;0.90;;;;;;;;;;5032932;28;20495;-67
2022/05/22 15:04:11;;;;;;;1.00;1.00;;;;;;;;;;5033055;28;20469;-67
2022/05/22 15:06:45;;;;;;;4.53;0.90;;;;;;;;;;5033057;28;20411;-66
2022/05/22 15:09:22;;;;;;;0.80;0.80;;;;;;;;;;5033063;28;20413;-68
2022/05/22 15:11:48;;;;;;;0.80;0.80;;;;;;;;;;5036729;28;20402;-67